Time;durP1;ratioP1;P1;durP2;ratioP2;P2;SDS_P1;SDS_P2;PMS_P1;PMS_P2;Temp;Humidity;BMP_temperature;BMP_pressure;BME280_temperature;BME280_humidity;BME280_pressure;Samples;Min_cycle;Max_cycle;Signal;HPM_P1;HPM_P2
2022/07/10 00:00:32;;;;;;;6.93;3.40;;;;;;;14.34;100.00;93758.59;2049420;28;20078;-80
2022/07/10 00:01:33;;;;;;;5.10;3.45;;;;;;;14.30;100.00;93754.50;2069569;28;20056;-80
2022/07/10 00:02:34;;;;;;;3.70;3.40;;;;;;;14.40;100.00;93761.56;2071809;28;20021;-81
2022/07/10 00:03:35;;;;;;;6.50;3.70;;;;;;;14.38;100.00;93757.78;2055726;28;20037;-80
2022/07/10 00:04:38;;;;;;;6.22;3.20;;;;;;;14.27;100.00;93752.69;2062859;28;20054;-80
2022/07/10 00:05:40;;;;;;;5.03;3.22;;;;;;;14.21;100.00;93755.09;2064297;28;20030;-80
2022/07/10 00:06:42;;;;;;;3.88;3.25;;;;;;;14.27;100.00;93752.69;2046768;28;20106;-80
2022/07/10 00:07:46;;;;;;;3.58;3.28;;;;;;;14.25;100.00;93745.00;2040179;28;20104;-80
2022/07/10 00:08:47;;;;;;;6.50;3.42;;;;;;;14.29;100.00;93753.75;2042596;28;20027;-81
2022/07/10 00:09:49;;;;;;;4.55;3.58;;;;;;;14.24;100.00;93745.44;2054577;28;20715;-80
2022/07/10 00:10:50;;;;;;;6.55;3.85;;;;;;;14.22;100.00;93742.41;2054663;28;20033;-80
2022/07/10 00:11:51;;;;;;;6.18;3.50;;;;;;;14.23;100.00;93747.38;2061116;28;20386;-79
2022/07/10 00:12:52;;;;;;;8.98;3.80;;;;;;;14.24;100.00;93740.06;2052489;28;20081;-80
2022/07/10 00:13:54;;;;;;;5.18;3.47;;;;;;;14.31;100.00;93746.03;2057273;28;20107;-80
2022/07/10 00:14:55;;;;;;;3.85;3.42;;;;;;;14.33;100.00;93737.53;2065149;28;20054;-80
2022/07/10 00:15:56;;;;;;;6.60;3.38;;;;;;;14.27;100.00;93742.66;2067927;28;20030;-79
2022/07/10 00:16:58;;;;;;;5.50;3.50;;;;;;;14.25;100.00;93746.94;2068023;28;20034;-80
2022/07/10 00:17:59;;;;;;;3.85;3.22;;;;;;;14.23;100.00;93741.25;2053882;28;20035;-80
2022/07/10 00:19:02;;;;;;;6.38;3.92;;;;;;;14.18;100.00;93739.84;2057324;28;20026;-80
2022/07/10 00:20:03;;;;;;;3.83;3.42;;;;;;;14.17;100.00;93748.31;2073555;28;20056;-80
2022/07/10 00:21:06;;;;;;;3.75;3.45;;;;;;;14.14;100.00;93741.09;2071526;28;20536;-80
2022/07/10 00:22:07;;;;;;;6.60;3.47;;;;;;;14.10;100.00;93744.63;2059555;28;20026;-80
2022/07/10 00:23:08;;;;;;;3.88;3.30;;;;;;;14.07;100.00;93737.41;2071836;28;20026;-80
2022/07/10 00:24:10;;;;;;;5.60;3.85;;;;;;;14.05;100.00;93737.09;2068662;28;20030;-79
2022/07/10 00:25:13;;;;;;;4.72;3.55;;;;;;;14.08;100.00;93738.16;2055964;28;20460;-79
2022/07/10 00:26:14;;;;;;;5.68;3.80;;;;;;;14.01;100.00;93741.03;2046009;28;20525;-80
2022/07/10 00:27:15;;;;;;;7.15;3.35;;;;;;;13.97;100.00;93732.31;2058064;28;20026;-80
2022/07/10 00:28:16;;;;;;;3.70;3.40;;;;;;;13.90;100.00;93737.84;2073334;28;20032;-80
2022/07/10 00:29:17;;;;;;;4.88;3.47;;;;;;;13.91;100.00;93739.34;2064892;28;20072;-81
2022/07/10 00:30:19;;;;;;;4.57;3.35;;;;;;;13.89;100.00;93733.66;2057064;28;20062;-79
2022/07/10 00:31:20;;;;;;;4.20;3.80;;;;;;;13.88;100.00;93734.84;2056925;28;20025;-81
2022/07/10 00:32:22;;;;;;;6.70;3.58;;;;;;;13.81;100.00;93730.38;2061405;28;20027;-80
2022/07/10 00:33:23;;;;;;;4.60;3.70;;;;;;;13.83;100.00;93734.16;2068114;28;20364;-80
2022/07/10 00:34:24;;;;;;;4.07;3.60;;;;;;;13.82;100.00;93727.25;2062036;28;20084;-81
2022/07/10 00:35:25;;;;;;;4.43;3.33;;;;;;;13.79;100.00;93735.44;2056084;28;20034;-80
2022/07/10 00:36:27;;;;;;;4.43;3.45;;;;;;;13.72;100.00;93735.59;2048603;28;20562;-80
2022/07/10 00:37:28;;;;;;;4.72;3.83;;;;;;;13.67;100.00;93736.09;2043675;28;20090;-80
2022/07/10 00:38:35;;;;;;;5.60;3.72;;;;;;;13.56;100.00;93744.38;2057307;28;20507;-80
2022/07/10 00:39:37;;;;;;;4.32;3.53;;;;;;;13.60;100.00;93743.13;2056933;28;20031;-81
2022/07/10 00:40:38;;;;;;;4.05;3.65;;;;;;;13.63;100.00;93741.53;2051879;28;20030;-80
2022/07/10 00:41:39;;;;;;;4.68;4.07;;;;;;;13.59;100.00;93743.56;2062920;28;20459;-80
2022/07/10 00:42:49;;;;;;;4.38;3.53;;;;;;;13.54;100.00;93739.44;2058801;28;20019;-81
2022/07/10 00:43:57;;;;;;;5.28;4.10;;;;;;;13.52;100.00;93744.50;2059441;28;20078;-80
2022/07/10 00:44:58;;;;;;;5.80;4.15;;;;;;;13.47;100.00;93741.53;2062646;28;20022;-80
2022/07/10 00:46:00;;;;;;;4.97;3.78;;;;;;;13.48;100.00;93735.75;2058741;28;20798;-80
2022/07/10 00:47:03;;;;;;;5.68;4.07;;;;;;;13.43;100.00;93743.53;2058143;28;20081;-81
2022/07/10 00:48:04;;;;;;;4.53;4.10;;;;;;;13.42;100.00;93739.34;2064736;28;20530;-80
2022/07/10 00:49:05;;;;;;;4.38;3.97;;;;;;;13.42;100.00;93742.78;2065560;28;20815;-81
2022/07/10 00:50:08;;;;;;;4.95;3.83;;;;;;;13.46;100.00;93737.34;2056809;28;20035;-80
2022/07/10 00:51:09;;;;;;;5.55;4.10;;;;;;;13.57;100.00;93737.84;2057207;28;20074;-81
2022/07/10 00:52:13;;;;;;;7.95;3.97;;;;;;;13.53;100.00;93742.56;2062976;28;20092;-80
2022/07/10 00:53:15;;;;;;;5.10;3.90;;;;;;;13.53;100.00;93739.88;2062267;28;20033;-80
2022/07/10 00:54:16;;;;;;;8.90;3.95;;;;;;;13.45;100.00;93741.94;2054809;28;20023;-80
2022/07/10 00:55:18;;;;;;;6.43;3.90;;;;;;;13.34;100.00;93731.47;2055323;28;20705;-81
2022/07/10 00:56:23;;;;;;;4.45;4.05;;;;;;;13.27;100.00;93733.53;2073021;28;20022;-80
2022/07/10 00:57:24;;;;;;;5.88;4.00;;;;;;;13.03;100.00;93743.59;2077883;28;20088;-80
2022/07/10 00:58:26;;;;;;;4.45;3.80;;;;;;;12.92;100.00;93738.47;2065018;28;20027;-80
2022/07/10 00:59:28;;;;;;;4.65;3.78;;;;;;;12.94;100.00;93736.09;2064640;28;20538;-79
2022/07/10 01:00:30;;;;;;;5.50;3.30;;;;;;;12.88;100.00;93737.78;2060542;28;20027;-80
2022/07/10 01:01:32;;;;;;;11.30;3.85;;;;;;;12.84;100.00;93742.47;2050152;28;20038;-79
2022/07/10 01:02:35;;;;;;;6.18;3.63;;;;;;;12.63;100.00;93740.94;2041605;28;20441;-81
2022/07/10 01:03:36;;;;;;;9.57;3.70;;;;;;;12.57;100.00;93734.56;2055427;28;20058;-80
2022/07/10 01:04:38;;;;;;;6.32;3.72;;;;;;;12.51;100.00;93728.94;2061432;28;20022;-81
2022/07/10 01:05:39;;;;;;;5.80;3.53;;;;;;;12.40;100.00;93733.72;2066105;28;20543;-79
2022/07/10 01:06:40;;;;;;;3.95;3.45;;;;;;;12.38;100.00;93728.03;2075934;28;20026;-80
2022/07/10 01:07:41;;;;;;;6.85;3.88;;;;;;;12.26;100.00;93726.72;2074888;28;20113;-80
2022/07/10 01:08:44;;;;;;;5.32;3.58;;;;;;;12.41;100.00;93729.13;2064984;28;20390;-81
2022/07/10 01:09:46;;;;;;;7.10;3.38;;;;;;;12.50;100.00;93735.44;2059000;28;20318;-80
2022/07/10 01:10:48;;;;;;;3.92;3.53;;;;;;;12.47;100.00;93736.28;2048640;28;20082;-80
2022/07/10 01:11:49;;;;;;;4.93;4.00;;;;;;;12.44;100.00;93726.38;2062910;28;20589;-80
2022/07/10 01:12:51;;;;;;;4.88;3.40;;;;;;;12.49;100.00;93725.13;2073102;28;20089;-79
2022/07/10 01:13:52;;;;;;;5.53;3.95;;;;;;;12.41;100.00;93723.75;2072739;28;20028;-80
2022/07/10 01:14:55;;;;;;;5.25;3.75;;;;;;;12.36;100.00;93725.00;2056689;28;20035;-79
2022/07/10 01:15:57;;;;;;;5.78;3.58;;;;;;;12.37;100.00;93728.44;2057045;28;20023;-80
2022/07/10 01:16:59;;;;;;;5.20;3.50;;;;;;;12.37;100.00;93729.19;2064791;28;20030;-80
2022/07/10 01:18:01;;;;;;;4.07;3.60;;;;;;;12.29;100.00;93731.25;2064670;28;20383;-80
2022/07/10 01:19:02;;;;;;;5.75;3.83;;;;;;;12.28;100.00;93719.00;2056601;28;20022;-81
2022/07/10 01:20:08;;;;;;;3.50;3.20;;;;;;;12.27;100.00;93719.44;2064810;28;20143;-80
2022/07/10 01:21:29;;;;;;;4.15;3.75;;;;;;;12.20;100.00;93719.53;2072244;28;20485;-80
2022/07/10 01:22:31;;;;;;;7.07;3.60;;;;;;;12.20;100.00;93730.25;2067338;28;20071;-81
2022/07/10 01:23:32;;;;;;;5.93;3.65;;;;;;;12.04;100.00;93726.34;2064732;28;20049;-80
2022/07/10 01:24:35;;;;;;;5.75;3.80;;;;;;;12.09;100.00;93727.78;2062907;28;20057;-79
2022/07/10 01:25:36;;;;;;;4.57;3.80;;;;;;;12.06;100.00;93715.19;2059772;28;20517;-80
2022/07/10 01:26:41;;;;;;;8.05;3.90;;;;;;;12.08;100.00;93718.25;2060449;28;20042;-79
2022/07/10 01:27:43;;;;;;;6.90;4.10;;;;;;;11.89;100.00;93722.38;2059881;28;20038;-80
2022/07/10 01:28:45;;;;;;;3.65;3.35;;;;;;;11.81;100.00;93719.06;2067086;28;20052;-80
2022/07/10 01:29:47;;;;;;;4.20;3.80;;;;;;;11.83;100.00;93719.41;2076956;28;20064;-79
2022/07/10 01:30:49;;;;;;;4.03;3.58;;;;;;;11.82;100.00;93717.13;2064591;28;20403;-79
2022/07/10 01:31:50;;;;;;;4.97;3.70;;;;;;;11.86;100.00;93717.84;2052771;28;20054;-80
2022/07/10 01:32:55;;;;;;;4.55;3.58;;;;;;;11.89;100.00;93717.00;2052898;28;20027;-80
2022/07/10 01:33:57;;;;;;;5.57;4.20;;;;;;;11.79;100.00;93712.56;2056836;28;20035;-80
2022/07/10 01:34:58;;;;;;;6.38;4.13;;;;;;;11.84;100.00;93709.44;2055111;28;20027;-80
2022/07/10 01:35:59;;;;;;;4.93;4.05;;;;;;;11.77;100.00;93718.34;2072149;28;20117;-80
2022/07/10 01:37:00;;;;;;;4.32;3.80;;;;;;;11.71;100.00;93714.59;2072815;28;20026;-80
2022/07/10 01:38:02;;;;;;;5.07;3.95;;;;;;;11.79;100.00;93707.97;2064669;28;20482;-80
2022/07/10 01:39:04;;;;;;;4.40;3.90;;;;;;;11.75;100.00;93707.28;2050935;28;20023;-79
2022/07/10 01:40:08;;;;;;;4.22;3.70;;;;;;;11.78;100.00;93708.38;2061622;28;20443;-80
2022/07/10 01:41:10;;;;;;;4.72;3.80;;;;;;;11.63;100.00;93704.41;2056868;28;20113;-80
2022/07/10 01:42:11;;;;;;;4.22;3.92;;;;;;;11.54;100.00;93707.63;2052436;28;20022;-78
2022/07/10 01:43:12;;;;;;;4.20;3.80;;;;;;;11.56;100.00;93703.38;2064661;28;20033;-79
2022/07/10 01:44:16;;;;;;;4.05;3.75;;;;;;;11.57;100.00;93701.47;2071500;28;20030;-80
2022/07/10 01:45:20;;;;;;;4.22;3.65;;;;;;;11.59;100.00;93701.81;2060538;28;20042;-79
2022/07/10 01:46:21;;;;;;;4.53;4.05;;;;;;;11.62;100.00;93703.66;2048960;28;20034;-80
2022/07/10 01:47:27;;;;;;;6.13;4.28;;;;;;;11.56;100.00;93702.63;2048511;28;20106;-80
2022/07/10 01:48:28;;;;;;;5.65;4.28;;;;;;;11.53;100.00;93701.50;2065284;28;20040;-80
2022/07/10 01:49:33;;;;;;;7.32;4.13;;;;;;;11.51;100.00;93709.19;2057511;28;20069;-79
2022/07/10 01:50:34;;;;;;;5.55;4.28;;;;;;;11.49;100.00;93705.41;2056706;28;20490;-80
2022/07/10 01:51:36;;;;;;;6.95;4.40;;;;;;;11.41;100.00;93704.75;2069397;28;20152;-80
2022/07/10 01:52:38;;;;;;;4.18;3.88;;;;;;;11.28;100.00;93704.59;2069030;28;20053;-80
2022/07/10 01:53:39;;;;;;;4.53;4.13;;;;;;;11.39;100.00;93695.63;2060295;28;20031;-80
2022/07/10 01:54:42;;;;;;;4.53;4.10;;;;;;;11.30;100.00;93701.50;2048418;28;20034;-81
2022/07/10 01:55:43;;;;;;;8.23;4.35;;;;;;;11.38;100.00;93699.47;2048771;28;20063;-80
2022/07/10 01:56:46;;;;;;;4.32;3.92;;;;;;;11.35;100.00;93709.81;2056429;28;20078;-80
2022/07/10 01:57:47;;;;;;;4.53;4.13;;;;;;;11.35;100.00;93711.75;2036920;28;20047;-80
2022/07/10 01:58:48;;;;;;;4.13;3.80;;;;;;;11.48;100.00;93711.94;2056600;28;20085;-81
2022/07/10 01:59:49;;;;;;;5.78;4.10;;;;;;;11.42;100.00;93719.66;2080327;28;20230;-79
2022/07/10 02:00:50;;;;;;;8.23;4.40;;;;;;;11.42;100.00;93718.91;2067185;28;20036;-81
2022/07/10 02:01:51;;;;;;;4.45;4.05;;;;;;;11.40;100.00;93718.56;2054817;28;20029;-80
2022/07/10 02:05:32;;;;;;;4.90;4.10;;;;;;;11.25;100.00;93715.34;2077720;28;20091;-79
2022/07/10 02:06:33;;;;;;;4.55;4.15;;;;;;;11.30;100.00;93717.56;2072195;28;20026;-80
2022/07/10 02:07:34;;;;;;;5.43;3.95;;;;;;;11.36;100.00;93715.91;2072311;28;20500;-81
2022/07/10 02:08:35;;;;;;;4.97;4.10;;;;;;;11.25;100.00;93721.44;2067687;28;20628;-80
2022/07/10 02:09:37;;;;;;;4.25;3.92;;;;;;;11.17;100.00;93722.69;2048135;28;20042;-80
2022/07/10 02:10:38;;;;;;;5.10;4.47;;;;;;;11.17;100.00;93720.03;2048317;28;20074;-80
2022/07/10 02:11:39;;;;;;;4.75;4.25;;;;;;;11.12;100.00;93717.06;2053902;28;20507;-80
2022/07/10 02:14:14;;;;;;;;;;;;;;;11.09;100.00;93721.28;2137505;27;20177;-82
2022/07/10 02:15:15;;;;;;;4.85;4.40;;;;;;;11.15;100.00;93716.22;2121279;28;19972;-82
2022/07/10 02:16:17;;;;;;;5.35;4.88;;;;;;;10.92;100.00;93723.03;2107532;28;20388;-81
2022/07/10 02:17:18;;;;;;;6.35;4.40;;;;;;;11.02;100.00;93716.06;2104568;28;20078;-81
2022/07/10 02:18:19;;;;;;;5.43;4.97;;;;;;;10.98;100.00;93716.09;2102916;28;20024;-82
2022/07/10 02:19:20;;;;;;;4.57;3.72;;;;;;;11.03;100.00;93720.22;2104594;28;20024;-81
2022/07/10 02:20:22;;;;;;;5.90;5.00;;;;;;;11.04;100.00;93717.16;2103690;28;20109;-81
2022/07/10 02:21:23;;;;;;;5.07;4.57;;;;;;;11.02;100.00;93718.72;2104682;28;20028;-82
2022/07/10 02:22:24;;;;;;;4.95;4.45;;;;;;;10.90;100.00;93720.03;2105736;28;20515;-81
2022/07/10 02:23:25;;;;;;;6.00;4.72;;;;;;;10.95;100.00;93721.47;2112196;28;20035;-82
2022/07/10 02:24:27;;;;;;;4.95;4.55;;;;;;;10.86;100.00;93713.19;2099227;28;20027;-81
2022/07/10 02:25:28;;;;;;;5.40;4.10;;;;;;;10.89;100.00;93713.16;2112203;28;20457;-81
2022/07/10 02:26:29;;;;;;;4.72;4.32;;;;;;;10.91;100.00;93721.53;2112643;28;20035;-80
2022/07/10 02:27:30;;;;;;;8.20;4.63;;;;;;;10.86;100.00;93715.88;2104296;28;20025;-80
2022/07/10 02:28:38;;;;;;;5.55;5.05;;;;;;;10.81;100.00;93717.84;2104325;28;20033;-80
2022/07/10 02:29:39;;;;;;;6.30;4.90;;;;;;;10.81;100.00;93720.50;2113834;28;20020;-80
2022/07/10 02:30:42;;;;;;;5.90;4.65;;;;;;;10.80;100.00;93710.97;2109177;28;20056;-81
2022/07/10 02:31:44;;;;;;;5.07;4.57;;;;;;;10.80;100.00;93715.56;2113458;27;20659;-81
2022/07/10 02:32:45;;;;;;;5.47;4.63;;;;;;;10.82;100.00;93719.34;2112721;28;20053;-81
2022/07/10 02:33:47;;;;;;;8.85;5.00;;;;;;;10.86;100.00;93713.19;2112672;28;20073;-81
2022/07/10 02:34:48;;;;;;;4.93;4.53;;;;;;;10.88;100.00;93711.63;2109957;28;20085;-81
2022/07/10 02:35:49;;;;;;;6.82;4.38;;;;;;;10.84;100.00;93713.59;2114485;27;20037;-81
2022/07/10 02:36:50;;;;;;;5.65;4.60;;;;;;;10.65;100.00;93706.97;2119331;28;20035;-81
2022/07/10 02:37:51;;;;;;;8.32;4.68;;;;;;;10.66;100.00;93705.03;2116919;28;20043;-81
2022/07/10 02:38:53;;;;;;;6.43;4.80;;;;;;;10.70;100.00;93713.78;2110682;28;20051;-82
2022/07/10 02:39:54;;;;;;;5.00;4.50;;;;;;;10.62;100.00;93707.75;2109216;27;20016;-82
2022/07/10 02:40:55;;;;;;;4.65;4.25;;;;;;;10.70;100.00;93708.44;2112452;28;20024;-81
2022/07/10 02:41:56;;;;;;;4.63;4.22;;;;;;;10.77;100.00;93717.13;2120728;28;20030;-80
2022/07/10 02:42:58;;;;;;;6.03;4.93;;;;;;;10.76;100.00;93712.19;2121595;27;20024;-81
2022/07/10 02:43:59;;;;;;;5.35;4.70;;;;;;;10.65;100.00;93708.88;2112640;28;20027;-81
2022/07/10 02:45:00;;;;;;;5.30;4.90;;;;;;;10.71;100.00;93717.97;2100287;28;20504;-81
2022/07/10 02:46:02;;;;;;;5.85;5.25;;;;;;;10.64;100.00;93715.41;2106509;27;20583;-81
2022/07/10 02:47:04;;;;;;;5.57;4.70;;;;;;;10.68;100.00;93711.50;2115136;27;20023;-80
2022/07/10 02:48:05;;;;;;;5.15;4.63;;;;;;;10.73;100.00;93708.38;2118975;28;20521;-82
2022/07/10 02:49:07;;;;;;;6.40;4.97;;;;;;;10.79;100.00;93706.03;2104194;28;20467;-80
2022/07/10 02:50:09;;;;;;;5.65;5.15;;;;;;;10.78;100.00;93704.50;2115337;27;20085;-82
2022/07/10 02:51:10;;;;;;;5.20;4.68;;;;;;;10.75;100.00;93705.31;2111477;28;20418;-80
2022/07/10 02:52:11;;;;;;;5.10;4.63;;;;;;;10.79;100.00;93711.38;2112595;27;20038;-81
2022/07/10 02:53:12;;;;;;;7.05;4.72;;;;;;;10.77;100.00;93709.09;2109066;28;20128;-81
2022/07/10 02:54:15;;;;;;;5.65;5.10;;;;;;;10.74;100.00;93703.78;2112692;27;20023;-81
2022/07/10 02:55:16;;;;;;;7.00;5.13;;;;;;;10.67;100.00;93707.34;2111337;28;20020;-81
2022/07/10 02:56:17;;;;;;;5.43;4.93;;;;;;;10.70;100.00;93708.44;2112643;28;20468;-81
2022/07/10 02:57:19;;;;;;;7.00;5.75;;;;;;;10.67;100.00;93710.00;2112570;28;20012;-81
2022/07/10 02:58:20;;;;;;;5.88;5.30;;;;;;;10.71;100.00;93710.72;2104281;28;20050;-81
2022/07/10 02:59:21;;;;;;;10.77;5.18;;;;;;;10.71;100.00;93709.94;2114012;27;20038;-81
2022/07/10 03:00:22;;;;;;;6.45;5.50;;;;;;;10.69;100.00;93712.28;2112048;28;20035;-82
2022/07/10 03:01:24;;;;;;;6.30;5.60;;;;;;;10.66;100.00;93713.81;2112582;28;20024;-82
2022/07/10 03:02:26;;;;;;;5.85;5.13;;;;;;;10.69;100.00;93709.59;2106282;28;20020;-82
2022/07/10 03:03:27;;;;;;;7.60;5.82;;;;;;;10.79;100.00;93716.72;2104544;28;20047;-82
2022/07/10 03:04:28;;;;;;;7.63;5.50;;;;;;;10.82;100.00;93711.31;2112575;27;20016;-80
2022/07/10 03:05:31;;;;;;;10.13;6.22;;;;;;;10.98;100.00;93710.75;2112203;28;20024;-82
2022/07/10 03:06:32;;;;;;;7.20;6.03;;;;;;;11.04;100.00;93709.13;2109397;28;20020;-81
2022/07/10 03:07:34;;;;;;;6.32;5.43;;;;;;;11.09;100.00;93713.25;2112010;28;20019;-81
2022/07/10 03:08:36;;;;;;;6.22;5.47;;;;;;;11.13;100.00;93711.28;2108307;28;20032;-81
2022/07/10 03:09:38;;;;;;;6.35;5.65;;;;;;;11.21;100.00;93710.03;2101984;28;20111;-81
2022/07/10 03:10:40;;;;;;;6.93;6.13;;;;;;;11.20;100.00;93703.16;2093723;28;20078;-81
2022/07/10 03:11:41;;;;;;;8.80;6.18;;;;;;;11.23;100.00;93702.34;2098328;28;20094;-81
2022/07/10 03:12:42;;;;;;;9.52;5.97;;;;;;;11.20;100.00;93699.75;2096239;28;20056;-81
2022/07/10 03:13:44;;;;;;;8.27;6.47;;;;;;;11.04;100.00;93703.78;2115246;28;20040;-82
2022/07/10 03:14:45;;;;;;;6.93;6.07;;;;;;;10.93;100.00;93697.81;2106639;28;20044;-81
2022/07/10 03:15:46;;;;;;;6.78;5.82;;;;;;;11.02;100.00;93698.09;2105521;28;20024;-82
2022/07/10 03:16:47;;;;;;;7.22;6.18;;;;;;;11.00;100.00;93696.97;2105533;27;20578;-82
2022/07/10 03:17:49;;;;;;;6.93;6.32;;;;;;;10.94;100.00;93695.91;2118282;28;20023;-81
2022/07/10 03:18:50;;;;;;;6.72;5.38;;;;;;;10.92;100.00;93695.53;2119645;27;20024;-81
2022/07/10 03:19:52;;;;;;;8.25;6.18;;;;;;;10.76;100.00;93694.22;2101587;28;20555;-81
2022/07/10 03:20:53;;;;;;;6.20;5.57;;;;;;;10.76;100.00;93701.50;2109481;28;20027;-81
2022/07/10 03:21:55;;;;;;;12.75;6.00;;;;;;;10.76;100.00;93688.13;2103870;28;20031;-80
2022/07/10 03:23:05;;;;;;;5.95;5.28;;;;;;;10.74;100.00;93699.19;2097693;28;20016;-81
2022/07/10 03:24:06;;;;;;;;;;;;;;;10.78;100.00;93693.81;2111386;27;20380;-81
2022/07/10 03:25:09;;;;;;;6.18;5.32;;;;;;;10.69;100.00;93699.66;2103604;28;20380;-81
2022/07/10 03:26:10;;;;;;;7.13;5.72;;;;;;;10.67;100.00;93698.53;2101168;28;20047;-82
2022/07/10 03:27:11;;;;;;;6.82;6.10;;;;;;;10.66;100.00;93699.69;2106632;28;20024;-82
2022/07/10 03:28:12;;;;;;;12.23;5.93;;;;;;;10.62;100.00;93691.72;2098258;28;20024;-81
2022/07/10 03:29:15;;;;;;;5.93;5.40;;;;;;;10.58;100.00;93691.78;2089315;28;20119;-82
2022/07/10 03:30:16;;;;;;;6.07;5.45;;;;;;;10.53;100.00;93688.78;2099985;28;20052;-81
2022/07/10 03:31:17;;;;;;;6.05;5.55;;;;;;;10.54;100.00;93691.06;2105340;28;20025;-81
2022/07/10 03:32:18;;;;;;;6.88;5.80;;;;;;;10.40;100.00;93701.91;2103592;28;20041;-81
2022/07/10 03:33:20;;;;;;;6.00;5.50;;;;;;;10.47;100.00;93701.84;2097367;28;20035;-81
2022/07/10 03:34:21;;;;;;;5.78;5.28;;;;;;;10.48;100.00;93707.94;2097580;28;20029;-81
2022/07/10 03:35:23;;;;;;;6.03;5.45;;;;;;;10.47;100.00;93701.84;2099088;28;20425;-80
2022/07/10 03:36:24;;;;;;;5.75;5.25;;;;;;;10.41;100.00;93708.78;2100893;28;20028;-80
2022/07/10 03:37:26;;;;;;;5.65;5.15;;;;;;;10.29;100.00;93703.97;2094138;28;20016;-81
2022/07/10 03:38:27;;;;;;;5.57;5.07;;;;;;;10.36;100.00;93701.22;2090221;28;20066;-82
2022/07/10 03:39:28;;;;;;;6.28;5.28;;;;;;;10.38;100.00;93696.22;2090793;28;20469;-80
2022/07/10 03:40:35;;;;;;;6.65;5.18;;;;;;;10.39;100.00;93708.41;2098980;28;20090;-81
2022/07/10 03:41:38;;;;;;;6.25;5.38;;;;;;;10.42;100.00;93699.59;2104874;27;20035;-81
2022/07/10 03:42:39;;;;;;;5.32;4.93;;;;;;;10.41;100.00;93706.13;2106928;28;20020;-81
2022/07/10 03:43:40;;;;;;;6.38;5.78;;;;;;;10.33;100.00;93702.00;2100345;28;20063;-81
2022/07/10 03:44:41;;;;;;;7.05;5.60;;;;;;;10.33;100.00;93699.34;2098624;28;20090;-81
2022/07/10 03:45:42;;;;;;;5.90;5.00;;;;;;;10.25;100.00;93697.88;2100310;28;20537;-81
2022/07/10 03:46:44;;;;;;;5.97;5.32;;;;;;;10.28;100.00;93689.09;2120137;27;20072;-81
2022/07/10 03:47:45;;;;;;;5.78;5.03;;;;;;;10.26;100.00;93694.06;2120445;27;20486;-81
2022/07/10 03:48:46;;;;;;;5.72;5.22;;;;;;;10.25;100.00;93690.63;2123057;27;20089;-81
2022/07/10 03:49:47;;;;;;;6.57;5.95;;;;;;;10.22;100.00;93690.63;2099530;28;20110;-81
2022/07/10 03:50:51;;;;;;;6.82;5.45;;;;;;;10.05;100.00;93698.47;2101037;28;20020;-82
2022/07/10 03:51:52;;;;;;;5.85;5.25;;;;;;;10.13;100.00;93685.00;2091701;28;20090;-80
2022/07/10 03:52:53;;;;;;;7.93;5.38;;;;;;;10.20;100.00;93682.28;2106702;28;20054;-81
2022/07/10 03:53:55;;;;;;;6.03;5.53;;;;;;;10.05;100.00;93687.78;2116976;27;20054;-82
2022/07/10 03:54:56;;;;;;;6.10;5.22;;;;;;;10.13;100.00;93688.44;2114118;27;20450;-82
2022/07/10 03:55:57;;;;;;;7.90;5.90;;;;;;;10.00;100.00;93690.84;2099195;28;20032;-82
2022/07/10 03:58:20;;;;;;;10.05;5.63;;;;;;;10.05;100.00;93689.66;2103682;28;20024;-82
2022/07/10 03:59:22;;;;;;;7.60;5.38;;;;;;;10.07;100.00;93682.03;2110379;28;20513;-81
2022/07/10 04:00:26;;;;;;;6.35;5.75;;;;;;;10.14;100.00;93679.28;2105400;27;20050;-82
2022/07/10 04:01:27;;;;;;;8.20;5.88;;;;;;;10.20;100.00;93676.94;2102163;28;20023;-81
2022/07/10 04:02:28;;;;;;;5.88;5.32;;;;;;;10.11;100.00;93682.75;2094744;28;20522;-81
2022/07/10 04:03:30;;;;;;;6.90;5.75;;;;;;;10.11;100.00;93682.00;2106109;28;20016;-82
2022/07/10 04:04:31;;;;;;;6.22;5.63;;;;;;;10.17;100.00;93683.06;2102151;28;20516;-82
2022/07/10 04:05:33;;;;;;;6.53;5.88;;;;;;;10.19;100.00;93678.84;2096497;28;20027;-82
2022/07/10 04:06:38;;;;;;;8.52;6.05;;;;;;;10.18;100.00;93680.00;2090565;28;20021;-81
2022/07/10 04:07:39;;;;;;;6.50;5.78;;;;;;;10.21;100.00;93692.56;2091790;28;20025;-81
2022/07/10 04:08:40;;;;;;;7.57;6.22;;;;;;;10.16;100.00;93686.91;2093221;28;20032;-81
2022/07/10 04:09:43;;;;;;;7.50;6.32;;;;;;;10.20;100.00;93687.63;2101964;28;20043;-81
2022/07/10 04:10:44;;;;;;;6.53;5.93;;;;;;;10.10;100.00;93686.59;2081901;28;20030;-81
2022/07/10 04:11:45;;;;;;;6.88;5.72;;;;;;;10.15;100.00;93685.38;2088520;28;20045;-81
2022/07/10 04:12:47;;;;;;;6.28;5.40;;;;;;;10.14;100.00;93686.53;2100965;28;20067;-81
2022/07/10 04:13:48;;;;;;;6.15;5.55;;;;;;;10.20;100.00;93688.38;2101047;28;20048;-82
2022/07/10 04:14:51;;;;;;;6.13;5.50;;;;;;;10.23;100.00;93692.94;2109187;28;20028;-81
2022/07/10 04:15:52;;;;;;;5.63;5.15;;;;;;;10.24;100.00;93691.78;2097974;28;20028;-82
2022/07/10 04:16:53;;;;;;;6.32;5.72;;;;;;;10.17;100.00;93685.72;2100731;28;20062;-83
2022/07/10 04:17:55;;;;;;;6.85;5.75;;;;;;;10.20;100.00;93684.94;2090998;28;20047;-83
2022/07/10 04:18:56;;;;;;;6.10;5.60;;;;;;;10.24;100.00;93683.00;2103526;28;20093;-82
2022/07/10 04:20:00;;;;;;;6.70;5.95;;;;;;;10.15;100.00;93682.72;2085614;28;20092;-81
2022/07/10 04:21:01;;;;;;;6.53;5.78;;;;;;;10.17;100.00;93685.72;2090090;28;20024;-82
2022/07/10 04:22:03;;;;;;;7.45;5.70;;;;;;;10.09;100.00;93677.78;2090343;28;20028;-82
2022/07/10 04:23:04;;;;;;;5.93;5.32;;;;;;;10.20;100.00;93676.94;2097178;28;20040;-82
2022/07/10 04:24:05;;;;;;;5.88;5.28;;;;;;;10.28;100.00;93681.06;2093003;28;20075;-82
2022/07/10 04:25:07;;;;;;;5.38;4.97;;;;;;;10.29;100.00;93682.59;2093888;28;20064;-82
2022/07/10 04:26:08;;;;;;;5.28;4.80;;;;;;;10.30;100.00;93678.75;2103871;28;20510;-82
2022/07/10 04:27:09;;;;;;;6.68;5.22;;;;;;;10.33;100.00;93678.72;2100758;28;20020;-81
2022/07/10 04:28:10;;;;;;;5.78;5.28;;;;;;;10.37;100.00;93676.00;2105221;28;20051;-82
2022/07/10 04:29:11;;;;;;;6.97;5.25;;;;;;;10.42;100.00;93677.47;2114764;27;20444;-82
2022/07/10 04:30:12;;;;;;;7.38;5.30;;;;;;;10.43;100.00;93677.06;2116780;27;20030;-82
2022/07/10 04:31:13;;;;;;;5.82;5.32;;;;;;;10.40;100.00;93674.44;2115300;28;20023;-81
2022/07/10 04:32:15;;;;;;;6.15;5.65;;;;;;;10.46;100.00;93683.53;2106161;28;20028;-81
2022/07/10 04:33:23;;;;;;;7.20;4.90;;;;;;;10.51;100.00;93677.75;2096628;28;20021;-81
2022/07/10 04:34:24;;;;;;;5.40;4.90;;;;;;;10.56;100.00;93678.03;2092898;28;20025;-81
2022/07/10 04:35:25;;;;;;;5.93;5.38;;;;;;;10.59;100.00;93685.28;2091984;28;20056;-81
2022/07/10 04:36:26;;;;;;;6.60;5.63;;;;;;;10.61;100.00;93674.16;2104727;28;20078;-82
2022/07/10 04:37:29;;;;;;;5.93;5.43;;;;;;;10.59;100.00;93677.25;2108557;28;20054;-81
2022/07/10 04:38:31;;;;;;;5.32;4.90;;;;;;;10.62;100.00;93680.25;2097725;28;20545;-81
2022/07/10 04:39:32;;;;;;;5.57;5.10;;;;;;;10.60;100.00;93678.00;2090356;28;20041;-81
2022/07/10 04:40:33;;;;;;;5.90;5.20;;;;;;;10.64;100.00;93677.97;2094668;28;20017;-82
2022/07/10 04:41:34;;;;;;;6.00;5.40;;;;;;;10.67;100.00;93682.50;2097641;28;20032;-82
2022/07/10 04:42:35;;;;;;;6.32;5.68;;;;;;;10.70;100.00;93679.03;2106980;28;20111;-82
2022/07/10 04:43:37;;;;;;;7.32;5.95;;;;;;;10.72;100.00;93680.16;2120130;27;20064;-81
2022/07/10 04:44:38;;;;;;;5.72;5.22;;;;;;;10.70;100.00;93682.44;2110455;28;20027;-81
2022/07/10 04:45:39;;;;;;;6.25;5.65;;;;;;;10.73;100.00;93680.91;2099310;28;20107;-81
2022/07/10 04:46:40;;;;;;;5.78;5.20;;;;;;;10.79;100.00;93684.63;2105414;28;20027;-81
2022/07/10 04:47:41;;;;;;;7.15;5.78;;;;;;;10.79;100.00;93679.28;2102428;28;20411;-82
2022/07/10 04:48:42;;;;;;;6.55;5.80;;;;;;;10.85;100.00;93677.69;2106391;28;20020;-82
2022/07/10 04:49:43;;;;;;;6.10;5.55;;;;;;;10.81;100.00;93679.66;2113656;28;20028;-81
2022/07/10 04:50:45;;;;;;;6.40;5.82;;;;;;;10.87;100.00;93683.38;2110820;28;20028;-82
2022/07/10 04:51:46;;;;;;;6.03;5.53;;;;;;;10.90;100.00;93682.56;2108803;28;20590;-81
2022/07/10 04:52:47;;;;;;;6.97;5.88;;;;;;;10.94;100.00;93683.28;2106404;28;20103;-82
2022/07/10 04:53:48;;;;;;;9.07;6.30;;;;;;;10.95;100.00;93682.13;2092107;28;20112;-81